CGV3 weather

Grand Valley North
Ontario, Canada

Public forecast

Using degrees Celsius for public forecast. Weather courtesy of forecast.io.

METAR (pilot weather report)

Closest report is CFB Borden, 26.6 nm (49.2 km) NE. Retrieved 2019/07/16 07:00 UTC (41 minutes ago):

CYBN 160700Z AUTO 14005KT 9SM OVC087 18/17 A2995 RMK SLP141

TAF (pilot weather forecast)

Forecast is more than 12 hours old.

Closest forecast is CFB Borden, 26.6 nm (49.2 km) NE. Retrieved 2019/07/15 00:33 UTC (1 day ago):

TAF TAF CYBN 152330Z 1600/1612 21006KT P6SM SCT090 BKN150 FM160200 VRB03KT 6SM -SHRA BR SCT040 OVC090 TEMPO 1602/1608 5SM -SHRA BR SCT020 OVC040 FM160800 VRB03KT P6SM FEW020 BKN050 RMK FCST BASED ON AUTO OBS. NXT FCST BY 160600Z